Time;durP1;ratioP1;P1;durP2;ratioP2;P2;SDS_P1;SDS_P2;PMS_P1;PMS_P2;Temp;Humidity;BMP_temperature;BMP_pressure;BME280_temperature;BME280_humidity;BME280_pressure;Samples;Min_cycle;Max_cycle;Signal;HPM_P1;HPM_P2
2021/05/11 00:01:07;;;;;;;6.18;2.60;;;;;;;;;;4346916;33;20190;-72
2021/05/11 00:03:33;;;;;;;7.32;3.00;;;;;;;;;;4348552;33;20522;-72
2021/05/11 00:05:58;;;;;;;7.05;2.90;;;;;;;;;;4347427;33;20514;-72
2021/05/11 00:08:23;;;;;;;8.65;3.10;;;;;;;;;;4346919;33;20143;-72
2021/05/11 00:10:48;;;;;;;9.18;3.30;;;;;;;;;;4347007;33;20493;-72
2021/05/11 00:13:14;;;;;;;8.88;2.90;;;;;;;;;;4346575;33;20567;-72
2021/05/11 00:15:39;;;;;;;8.73;3.10;;;;;;;;;;4348584;33;20135;-72
2021/05/11 00:18:04;;;;;;;9.55;3.58;;;;;;;;;;4348573;33;20291;-72
2021/05/11 00:20:29;;;;;;;7.35;3.03;;;;;;;;;;4346561;33;20279;-72
2021/05/11 00:22:54;;;;;;;11.23;3.50;;;;;;;;;;4348066;33;20591;-73
2021/05/11 00:25:20;;;;;;;8.10;3.45;;;;;;;;;;4346322;33;20267;-72
2021/05/11 00:27:45;;;;;;;6.97;3.00;;;;;;;;;;4346441;33;20187;-72
2021/05/11 00:30:11;;;;;;;8.68;3.50;;;;;;;;;;4348698;33;20573;-72
2021/05/11 00:32:36;;;;;;;10.02;4.05;;;;;;;;;;4347974;33;20204;-72
2021/05/11 00:35:01;;;;;;;10.20;3.20;;;;;;;;;;4347302;33;20210;-72
2021/05/11 00:37:26;;;;;;;7.68;2.83;;;;;;;;;;4346732;33;20144;-72
2021/05/11 00:39:52;;;;;;;6.70;3.40;;;;;;;;;;4332781;33;20217;-72
2021/05/11 00:42:17;;;;;;;8.87;3.50;;;;;;;;;;4347487;33;20549;-72
2021/05/11 00:44:42;;;;;;;10.23;3.78;;;;;;;;;;4346012;33;20236;-72
2021/05/11 00:47:07;;;;;;;6.62;3.12;;;;;;;;;;4345735;33;20592;-73
2021/05/11 00:49:33;;;;;;;10.25;3.40;;;;;;;;;;4347563;33;20193;-73
2021/05/11 00:51:59;;;;;;;7.40;3.10;;;;;;;;;;4332457;33;20179;-72
2021/05/11 00:54:25;;;;;;;10.38;3.83;;;;;;;;;;4332549;33;20167;-73
2021/05/11 00:56:51;;;;;;;6.53;3.25;;;;;;;;;;4346271;33;20131;-72
2021/05/11 00:59:24;;;;;;;9.18;3.47;;;;;;;;;;4346480;33;20632;-72
2021/05/11 01:01:50;;;;;;;11.27;3.90;;;;;;;;;;4345023;33;20518;-72
2021/05/11 01:04:15;;;;;;;8.55;3.45;;;;;;;;;;4348203;33;20142;-72
2021/05/11 01:06:40;;;;;;;9.07;3.90;;;;;;;;;;4347882;33;20162;-73
2021/05/11 01:09:06;;;;;;;7.28;3.40;;;;;;;;;;4344670;33;20190;-74
2021/05/11 01:11:32;;;;;;;9.90;3.80;;;;;;;;;;4344559;33;20163;-73
2021/05/11 01:13:57;;;;;;;11.95;4.50;;;;;;;;;;4346598;33;20162;-72
2021/05/11 01:16:25;;;;;;;8.20;3.72;;;;;;;;;;4345392;33;20172;-71
2021/05/11 01:18:50;;;;;;;10.27;4.18;;;;;;;;;;4346414;33;20135;-73
2021/05/11 02:10:05;;;;;;;7.43;3.50;;;;;;;;;;4320369;33;20218;-72
2021/05/11 02:22:57;;;;;;;9.02;3.83;;;;;;;;;;4346813;33;20255;-71
2021/05/11 02:25:22;;;;;;;7.55;3.95;;;;;;;;;;4344985;33;20671;-73
2021/05/11 02:27:48;;;;;;;10.13;4.15;;;;;;;;;;4343779;33;20195;-71
2021/05/11 02:30:13;;;;;;;11.25;4.47;;;;;;;;;;4345947;33;20202;-72
2021/05/11 02:32:39;;;;;;;8.80;4.50;;;;;;;;;;4345641;33;20464;-72
2021/05/11 02:35:05;;;;;;;9.88;4.78;;;;;;;;;;4346732;33;20147;-72
2021/05/11 02:37:30;;;;;;;10.15;4.75;;;;;;;;;;4333088;33;20267;-72
2021/05/11 02:39:56;;;;;;;14.75;4.80;;;;;;;;;;4345178;33;20194;-72
2021/05/11 02:42:21;;;;;;;8.07;4.40;;;;;;;;;;4346038;33;20568;-72
2021/05/11 02:44:47;;;;;;;10.82;4.93;;;;;;;;;;4335875;33;20167;-72
2021/05/11 02:47:12;;;;;;;9.23;4.65;;;;;;;;;;4347300;33;20159;-72
2021/05/11 02:49:41;;;;;;;12.85;5.30;;;;;;;;;;4347802;33;20162;-71
2021/05/11 02:52:07;;;;;;;11.43;5.30;;;;;;;;;;4346477;33;20195;-72
2021/05/11 02:54:32;;;;;;;11.15;5.05;;;;;;;;;;4348446;33;20162;-72
2021/05/11 02:56:57;;;;;;;12.27;5.18;;;;;;;;;;4349014;33;20182;-71
2021/05/11 02:59:23;;;;;;;13.33;6.17;;;;;;;;;;4349271;33;20238;-72
2021/05/11 03:01:48;;;;;;;11.80;5.53;;;;;;;;;;4347475;33;20244;-72
2021/05/11 03:04:13;;;;;;;11.90;6.00;;;;;;;;;;4334978;33;20567;-71
2021/05/11 03:06:38;;;;;;;13.02;6.03;;;;;;;;;;4347772;33;20147;-71
2021/05/11 03:09:03;;;;;;;16.42;6.53;;;;;;;;;;4347975;33;20307;-72
2021/05/11 03:11:29;;;;;;;14.70;5.80;;;;;;;;;;4347453;33;20236;-72
2021/05/11 03:13:54;;;;;;;17.65;6.62;;;;;;;;;;4333903;33;20164;-72
2021/05/11 03:16:20;;;;;;;11.88;5.70;;;;;;;;;;4348978;33;20263;-72
2021/05/11 03:18:45;;;;;;;16.37;6.28;;;;;;;;;;4348319;33;20166;-73
2021/05/11 03:21:10;;;;;;;13.77;7.28;;;;;;;;;;4347027;33;20163;-72
2021/05/11 03:23:35;;;;;;;9.18;6.00;;;;;;;;;;4347235;33;20143;-72
2021/05/11 03:26:01;;;;;;;12.60;6.67;;;;;;;;;;4333763;33;20171;-71
2021/05/11 03:28:26;;;;;;;15.37;6.47;;;;;;;;;;4347753;33;20638;-72
2021/05/11 03:30:51;;;;;;;12.32;6.50;;;;;;;;;;4347026;33;20244;-72
2021/05/11 03:33:16;;;;;;;11.27;6.65;;;;;;;;;;4347491;33;20258;-72
2021/05/11 03:35:41;;;;;;;11.88;6.37;;;;;;;;;;4333739;33;20227;-72
2021/05/11 03:38:08;;;;;;;11.23;6.03;;;;;;;;;;4347468;33;20571;-72
2021/05/11 03:40:34;;;;;;;13.32;6.32;;;;;;;;;;4348701;33;20229;-73
2021/05/11 03:43:06;;;;;;;15.52;7.28;;;;;;;;;;4347481;33;20136;-72
2021/05/11 03:45:36;;;;;;;18.23;7.90;;;;;;;;;;4348223;33;20140;-73
2021/05/11 03:48:01;;;;;;;12.95;6.45;;;;;;;;;;4335221;33;20167;-72
2021/05/11 03:50:26;;;;;;;12.63;6.90;;;;;;;;;;4348995;33;20439;-72
2021/05/11 03:52:52;;;;;;;13.82;6.47;;;;;;;;;;4348167;33;20296;-71
2021/05/11 03:55:17;;;;;;;18.00;6.95;;;;;;;;;;4333137;33;20506;-71
2021/05/11 03:57:42;;;;;;;17.12;7.37;;;;;;;;;;4347468;33;20572;-72
2021/05/11 04:00:08;;;;;;;14.95;7.22;;;;;;;;;;4347116;33;20167;-71
2021/05/11 04:02:33;;;;;;;18.12;6.87;;;;;;;;;;4347421;33;20205;-72
2021/05/11 04:04:58;;;;;;;13.82;7.47;;;;;;;;;;4348276;33;20151;-71
2021/05/11 04:07:23;;;;;;;12.07;6.93;;;;;;;;;;4333271;33;20206;-72
2021/05/11 04:09:53;;;;;;;17.48;6.72;;;;;;;;;;4348030;33;20318;-72
2021/05/11 04:17:31;;;;;;;12.20;6.65;;;;;;;;;;4346688;33;20149;-72
2021/05/11 04:19:56;;;;;;;16.87;7.03;;;;;;;;;;4348112;33;20151;-72
2021/05/11 04:22:21;;;;;;;14.30;7.37;;;;;;;;;;4362455;32;20517;-72
2021/05/11 04:24:47;;;;;;;15.18;8.00;;;;;;;;;;4358010;32;20245;-72
2021/05/11 04:27:12;;;;;;;15.32;7.62;;;;;;;;;;4377093;32;20161;-72
2021/05/11 04:29:37;;;;;;;14.63;7.28;;;;;;;;;;4375879;32;20138;-73
2021/05/11 04:32:02;;;;;;;13.85;7.90;;;;;;;;;;4364100;32;20259;-72
2021/05/11 04:34:27;;;;;;;18.80;8.60;;;;;;;;;;4362986;32;20166;-72
2021/05/11 04:36:53;;;;;;;13.27;7.95;;;;;;;;;;4377807;32;20170;-73
2021/05/11 04:39:18;;;;;;;17.50;8.60;;;;;;;;;;4378266;32;20135;-72
2021/05/11 04:41:43;;;;;;;18.80;8.27;;;;;;;;;;4363329;32;20693;-72
2021/05/11 04:44:09;;;;;;;15.85;8.57;;;;;;;;;;4378041;32;20239;-71
2021/05/11 04:49:18;;;;;;;14.35;6.78;;;;;;;;;;4376661;32;20161;-72
2021/05/11 04:51:44;;;;;;;15.75;7.82;;;;;;;;;;4378207;32;20158;-72
2021/05/11 04:54:10;;;;;;;16.73;8.60;;;;;;;;;;4375976;32;20162;-72
2021/05/11 04:56:35;;;;;;;13.68;7.35;;;;;;;;;;4375604;32;20169;-72
2021/05/11 04:59:01;;;;;;;16.80;7.53;;;;;;;;;;4363140;32;20171;-73
2021/05/11 05:01:26;;;;;;;16.55;8.00;;;;;;;;;;4376047;32;20560;-73
2021/05/11 05:03:53;;;;;;;15.80;7.75;;;;;;;;;;4376260;32;20516;-71
2021/05/11 05:06:19;;;;;;;15.38;7.62;;;;;;;;;;4361525;32;20262;-72
2021/05/11 05:08:44;;;;;;;13.43;7.22;;;;;;;;;;4375871;32;20228;-71
2021/05/11 05:11:09;;;;;;;14.40;7.13;;;;;;;;;;4362624;32;20158;-72
2021/05/11 05:13:34;;;;;;;15.40;7.45;;;;;;;;;;4376197;32;20239;-72
2021/05/11 05:16:00;;;;;;;12.45;6.30;;;;;;;;;;4375843;32;20158;-73
2021/05/11 05:18:28;;;;;;;14.60;7.32;;;;;;;;;;4376486;32;20620;-72
2021/05/11 05:20:55;;;;;;;11.23;6.60;;;;;;;;;;4376955;32;20202;-71
2021/05/11 05:23:22;;;;;;;17.48;6.78;;;;;;;;;;4376951;32;20169;-72
2021/05/11 05:25:51;;;;;;;15.23;6.50;;;;;;;;;;4375867;32;20493;-72
2021/05/11 05:28:16;;;;;;;16.62;7.65;;;;;;;;;;4375116;32;20262;-77
2021/05/11 05:30:41;;;;;;;15.40;6.95;;;;;;;;;;4375983;32;20135;-76
2021/05/11 05:33:06;;;;;;;16.92;7.55;;;;;;;;;;4376952;32;20174;-76
2021/05/11 05:35:32;;;;;;;17.00;7.22;;;;;;;;;;4376406;32;20278;-76
2021/05/11 05:37:57;;;;;;;17.33;7.10;;;;;;;;;;4363247;32;20316;-76
2021/05/11 05:40:23;;;;;;;12.18;6.05;;;;;;;;;;4364168;32;20622;-73
2021/05/11 05:42:48;;;;;;;12.80;5.97;;;;;;;;;;4375887;32;20138;-74
2021/05/11 05:45:14;;;;;;;14.43;5.78;;;;;;;;;;4361587;32;20221;-75
2021/05/11 05:47:50;;;;;;;16.25;5.95;;;;;;;;;;4375912;32;20617;-74
2021/05/11 05:50:16;;;;;;;14.60;7.57;;;;;;;;;;4362282;32;20248;-76
2021/05/11 05:52:41;;;;;;;13.75;5.28;;;;;;;;;;4363640;32;20197;-76
2021/05/11 05:55:07;;;;;;;12.90;5.47;;;;;;;;;;4362296;32;20474;-76
2021/05/11 05:57:32;;;;;;;13.32;5.32;;;;;;;;;;4360475;32;20144;-76
2021/05/11 05:59:57;;;;;;;15.88;5.47;;;;;;;;;;4360628;33;20143;-77
2021/05/11 06:02:23;;;;;;;10.82;4.50;;;;;;;;;;4361941;32;20243;-77
2021/05/11 06:04:48;;;;;;;11.48;5.28;;;;;;;;;;4346728;33;20238;-77
2021/05/11 06:07:17;;;;;;;17.00;5.62;;;;;;;;;;4347343;33;20167;-77
2021/05/11 06:09:42;;;;;;;11.82;5.00;;;;;;;;;;4360414;32;20143;-72
2021/05/11 06:12:22;;;;;;;13.15;5.80;;;;;;;;;;4346103;33;20626;-73
2021/05/11 06:17:01;;;;;;;13.05;4.80;;;;;;;;;;4347586;33;20477;-72
2021/05/11 06:17:35;;;;;;;8.38;4.30;;;;;;;;;;4363865;32;20167;-72
2021/05/11 06:20:00;;;;;;;10.65;4.62;;;;;;;;;;4361490;32;20181;-72
2021/05/11 06:22:25;;;;;;;11.77;5.12;;;;;;;;;;4363044;32;20639;-71
2021/05/11 06:24:51;;;;;;;10.63;4.47;;;;;;;;;;4351114;32;20230;-72
2021/05/11 06:27:16;;;;;;;14.52;4.75;;;;;;;;;;4339843;33;20526;-72
2021/05/11 06:29:44;;;;;;;14.77;4.97;;;;;;;;;;4321157;33;20238;-71
2021/05/11 06:32:09;;;;;;;13.50;4.95;;;;;;;;;;4321409;33;20656;-71
2021/05/11 06:34:35;;;;;;;12.15;5.72;;;;;;;;;;4334763;33;20140;-72
2021/05/11 06:37:01;;;;;;;16.15;5.65;;;;;;;;;;4335503;33;20195;-71
2021/05/11 06:39:26;;;;;;;14.32;5.65;;;;;;;;;;4321691;33;20190;-72
2021/05/11 06:41:54;;;;;;;15.35;5.82;;;;;;;;;;4334498;33;20591;-72
2021/05/11 06:47:27;;;;;;;14.85;6.25;;;;;;;;;;4323173;33;20247;-73
2021/05/11 06:54:58;;;;;;;13.30;5.75;;;;;;;;;;4340328;33;20155;-72
2021/05/11 06:57:24;;;;;;;12.95;5.22;;;;;;;;;;4331751;33;20273;-72
2021/05/11 06:59:49;;;;;;;14.38;5.78;;;;;;;;;;4320455;33;20179;-72
2021/05/11 07:02:14;;;;;;;17.15;6.47;;;;;;;;;;4338398;33;20187;-72
2021/05/11 07:04:40;;;;;;;18.35;6.60;;;;;;;;;;4335451;33;20156;-72
2021/05/11 07:07:11;;;;;;;15.57;5.80;;;;;;;;;;4320646;33;20339;-73
2021/05/11 07:14:29;;;;;;;12.68;6.03;;;;;;;;;;4335343;33;20241;-73
2021/05/11 07:16:55;;;;;;;14.18;6.12;;;;;;;;;;4347594;33;20181;-72
2021/05/11 07:19:20;;;;;;;12.02;6.60;;;;;;;;;;4349096;33;20186;-72
2021/05/11 07:21:45;;;;;;;12.37;6.10;;;;;;;;;;4358408;33;20239;-73
2021/05/11 07:24:10;;;;;;;17.37;7.15;;;;;;;;;;4348552;33;20286;-72
2021/05/11 07:26:47;;;;;;;9.85;6.00;;;;;;;;;;4347685;33;20261;-72
2021/05/11 07:31:40;;;;;;;16.30;6.97;;;;;;;;;;4346490;33;20164;-72
2021/05/11 07:34:07;;;;;;;13.27;6.22;;;;;;;;;;4342786;33;20163;-72
2021/05/11 07:36:33;;;;;;;11.80;5.53;;;;;;;;;;4342740;32;20261;-72
2021/05/11 07:38:58;;;;;;;11.73;6.22;;;;;;;;;;4336739;33;20167;-72
2021/05/11 07:41:23;;;;;;;11.88;6.95;;;;;;;;;;4344621;33;20283;-72
2021/05/11 07:43:57;;;;;;;19.58;6.80;;;;;;;;;;4331747;33;20140;-72
2021/05/11 08:15:32;;;;;;;13.00;8.15;;;;;;;;;;4342815;33;20595;-72
2021/05/11 08:28:24;;;;;;;13.18;8.57;;;;;;;;;;4354481;33;20208;-72
2021/05/11 08:30:50;;;;;;;13.00;7.60;;;;;;;;;;4348625;32;20584;-72
2021/05/11 08:33:15;;;;;;;11.40;7.43;;;;;;;;;;4347023;33;20338;-72
2021/05/11 08:35:40;;;;;;;11.32;7.37;;;;;;;;;;4345603;33;20264;-72
2021/05/11 08:38:05;;;;;;;12.93;7.97;;;;;;;;;;4348247;33;20147;-72
2021/05/11 08:40:32;;;;;;;14.50;8.23;;;;;;;;;;4346531;33;20759;-73
2021/05/11 08:43:00;;;;;;;17.87;9.55;;;;;;;;;;4347654;33;20252;-72
2021/05/11 08:45:25;;;;;;;14.87;7.25;;;;;;;;;;4347575;32;20565;-72
2021/05/11 08:47:52;;;;;;;14.18;7.55;;;;;;;;;;4346783;33;20167;-73
2021/05/11 08:50:24;;;;;;;13.35;8.05;;;;;;;;;;4351886;32;20143;-71
2021/05/11 09:07:13;;;;;;;12.35;7.43;;;;;;;;;;4361819;32;20566;-72
2021/05/11 09:09:59;;;;;;;14.35;7.47;;;;;;;;;;4359832;33;20190;-72
2021/05/11 09:32:11;;;;;;;16.12;8.57;;;;;;;;;;4345462;33;20159;-71
2021/05/11 09:57:04;;;;;;;15.93;8.35;;;;;;;;;;4343597;32;20197;-75
2021/05/11 10:39:05;;;;;;;14.57;8.60;;;;;;;;;;4342188;33;20198;-74
2021/05/11 10:46:57;;;;;;;15.65;7.78;;;;;;;;;;4340609;33;20559;-74
2021/05/11 10:49:25;;;;;;;12.75;8.23;;;;;;;;;;4327818;33;20151;-73
2021/05/11 10:52:13;;;;;;;16.65;9.18;;;;;;;;;;4326923;33;20244;-73
2021/05/11 10:54:46;;;;;;;15.63;9.43;;;;;;;;;;4342564;33;20243;-74
2021/05/11 10:57:32;;;;;;;14.52;9.15;;;;;;;;;;4333939;33;20191;-74
2021/05/11 11:00:33;;;;;;;15.20;8.10;;;;;;;;;;4326423;33;20156;-73
2021/05/11 11:03:12;;;;;;;16.55;9.93;;;;;;;;;;4324145;33;20307;-73
2021/05/11 11:05:38;;;;;;;12.10;7.75;;;;;;;;;;4315629;33;20278;-73
2021/05/11 11:08:04;;;;;;;14.82;8.70;;;;;;;;;;4328725;33;20144;-73
2021/05/11 11:10:30;;;;;;;16.02;10.80;;;;;;;;;;4329645;33;20218;-73
2021/05/11 11:12:55;;;;;;;23.12;11.48;;;;;;;;;;4331098;33;20147;-73
2021/05/11 11:15:21;;;;;;;18.23;9.68;;;;;;;;;;4319894;33;20218;-73
2021/05/11 11:17:50;;;;;;;16.70;9.38;;;;;;;;;;4339194;33;20572;-74
2021/05/11 11:20:17;;;;;;;14.87;9.35;;;;;;;;;;4343573;33;20147;-73
2021/05/11 11:25:40;;;;;;;19.12;9.73;;;;;;;;;;4331153;33;20447;-73
2021/05/11 11:28:05;;;;;;;15.07;10.00;;;;;;;;;;4332332;33;20545;-74
2021/05/11 11:30:31;;;;;;;36.90;10.98;;;;;;;;;;4330820;33;20163;-74
2021/05/11 11:33:00;;;;;;;15.73;7.97;;;;;;;;;;4331653;33;20735;-74
2021/05/11 11:35:30;;;;;;;13.60;7.72;;;;;;;;;;4318330;33;20670;-74
2021/05/11 11:37:57;;;;;;;14.38;8.43;;;;;;;;;;4330582;33;20171;-74
2021/05/11 11:40:22;;;;;;;15.43;7.03;;;;;;;;;;4330747;33;20178;-73
2021/05/11 11:42:49;;;;;;;13.93;8.27;;;;;;;;;;4320756;33;20178;-74
2021/05/11 11:45:20;;;;;;;15.57;8.27;;;;;;;;;;4323336;33;20233;-74
2021/05/11 11:47:54;;;;;;;15.18;8.60;;;;;;;;;;4321176;33;20175;-74
2021/05/11 11:50:19;;;;;;;14.63;7.65;;;;;;;;;;4346411;33;20565;-73
2021/05/11 11:58:13;;;;;;;12.75;6.37;;;;;;;;;;4329612;33;20199;-73
2021/05/11 12:00:33;;;;;;;10.25;6.35;;;;;;;;;;4328523;33;20282;-74
2021/05/11 12:03:02;;;;;;;15.75;6.87;;;;;;;;;;4330252;33;20676;-74
2021/05/11 12:05:37;;;;;;;11.35;5.93;;;;;;;;;;4318618;33;20176;-75
2021/05/11 12:10:44;;;;;;;12.02;6.70;;;;;;;;;;4331036;33;20136;-73
2021/05/11 12:13:10;;;;;;;11.48;6.72;;;;;;;;;;4331283;33;20163;-74
2021/05/11 12:15:36;;;;;;;15.02;7.15;;;;;;;;;;4314055;33;20557;-74
2021/05/11 12:18:09;;;;;;;14.00;8.02;;;;;;;;;;4303193;33;20203;-74
2021/05/11 12:20:35;;;;;;;14.25;7.05;;;;;;;;;;4314762;33;20136;-74
2021/05/11 12:23:04;;;;;;;16.98;8.88;;;;;;;;;;4314450;33;20627;-74
2021/05/11 12:25:29;;;;;;;14.32;8.10;;;;;;;;;;4303267;33;20184;-73
2021/05/11 12:27:57;;;;;;;11.73;6.80;;;;;;;;;;4314829;33;20215;-74
2021/05/11 12:30:35;;;;;;;10.88;6.15;;;;;;;;;;4325047;33;20175;-74
2021/05/11 12:33:01;;;;;;;13.82;6.60;;;;;;;;;;4331523;33;20471;-74
2021/05/11 12:35:28;;;;;;;13.68;6.15;;;;;;;;;;4331071;33;20144;-73
2021/05/11 12:37:55;;;;;;;13.85;6.03;;;;;;;;;;4331216;33;20166;-75
2021/05/11 12:42:49;;;;;;;15.85;7.15;;;;;;;;;;4330063;33;20586;-76
2021/05/11 12:45:15;;;;;;;13.80;7.37;;;;;;;;;;4329934;33;20170;-73
2021/05/11 12:47:47;;;;;;;17.85;7.50;;;;;;;;;;4328756;33;20135;-74
2021/05/11 12:50:15;;;;;;;16.08;7.32;;;;;;;;;;4316020;33;20163;-75
2021/05/11 12:52:41;;;;;;;15.73;7.70;;;;;;;;;;4329995;33;20155;-74
2021/05/11 12:55:14;;;;;;;13.20;7.43;;;;;;;;;;4331928;33;20176;-74
2021/05/11 12:57:52;;;;;;;13.73;7.45;;;;;;;;;;4344972;33;20123;-76
2021/05/11 13:00:33;;;;;;;10.23;5.47;;;;;;;;;;4343752;33;20131;-75
2021/05/11 13:03:15;;;;;;;13.32;6.18;;;;;;;;;;4331700;33;20286;-74
2021/05/11 13:27:18;;;;;;;15.93;8.70;;;;;;;;;;4344918;33;20223;-74
2021/05/11 13:29:58;;;;;;;16.75;8.90;;;;;;;;;;4337024;33;20580;-74
2021/05/11 13:35:00;;;;;;;12.93;7.85;;;;;;;;;;4343575;33;20146;-74
2021/05/11 13:37:28;;;;;;;9.98;5.55;;;;;;;;;;4343695;33;20158;-75
2021/05/11 13:39:54;;;;;;;6.50;3.97;;;;;;;;;;4344456;33;20139;-74
2021/05/11 13:42:19;;;;;;;7.60;4.05;;;;;;;;;;4342740;33;20233;-75
2021/05/11 13:44:44;;;;;;;6.20;4.37;;;;;;;;;;4345617;33;20185;-76
2021/05/11 13:47:10;;;;;;;11.05;4.80;;;;;;;;;;4329483;33;20280;-74
2021/05/11 13:49:35;;;;;;;10.30;5.60;;;;;;;;;;4342561;33;20641;-75
2021/05/11 13:52:00;;;;;;;9.93;5.65;;;;;;;;;;4342315;33;20629;-74
2021/05/11 13:54:26;;;;;;;9.77;6.18;;;;;;;;;;4342628;33;20233;-74
2021/05/11 14:04:40;;;;;;;8.90;3.80;;;;;;;;;;4343482;33;20206;-74
2021/05/11 14:07:05;;;;;;;7.78;4.12;;;;;;;;;;4342743;33;20474;-75
2021/05/11 14:09:31;;;;;;;7.97;3.62;;;;;;;;;;4343860;33;20571;-75
2021/05/11 14:11:56;;;;;;;7.12;3.70;;;;;;;;;;4330389;33;20157;-75
2021/05/11 14:14:21;;;;;;;7.55;3.83;;;;;;;;;;4328511;33;20512;-75
2021/05/11 14:16:47;;;;;;;6.50;3.37;;;;;;;;;;4340805;33;20214;-75
2021/05/11 14:19:13;;;;;;;7.22;3.20;;;;;;;;;;4342175;33;20552;-75
2021/05/11 14:21:38;;;;;;;7.75;3.10;;;;;;;;;;4329362;33;20171;-75
2021/05/11 14:24:03;;;;;;;9.10;3.70;;;;;;;;;;4341935;33;20806;-74
2021/05/11 14:26:29;;;;;;;7.15;3.10;;;;;;;;;;4329786;33;20185;-74
2021/05/11 14:28:56;;;;;;;4.05;2.33;;;;;;;;;;4343422;33;20174;-75
2021/05/11 14:31:21;;;;;;;8.38;3.35;;;;;;;;;;4341392;33;20163;-75
2021/05/11 14:33:46;;;;;;;6.30;3.05;;;;;;;;;;4342335;33;20194;-74
2021/05/11 14:36:12;;;;;;;6.37;3.10;;;;;;;;;;4342332;33;20535;-75
2021/05/11 14:38:37;;;;;;;9.25;3.53;;;;;;;;;;4341668;33;20568;-75
2021/05/11 14:41:03;;;;;;;7.28;3.92;;;;;;;;;;4345716;33;20164;-75
2021/05/11 14:43:32;;;;;;;7.95;3.50;;;;;;;;;;4345395;33;20261;-74
2021/05/11 14:46:03;;;;;;;7.53;3.65;;;;;;;;;;4346627;33;20132;-75
2021/05/11 14:48:33;;;;;;;7.87;4.03;;;;;;;;;;4345018;33;20136;-75
2021/05/11 14:50:58;;;;;;;10.68;6.10;;;;;;;;;;4347122;33;20143;-75
2021/05/11 14:53:24;;;;;;;11.77;6.15;;;;;;;;;;4344466;33;20489;-75
2021/05/11 14:55:49;;;;;;;9.77;5.60;;;;;;;;;;4331335;33;20193;-76
2021/05/11 14:58:14;;;;;;;11.90;6.75;;;;;;;;;;4346242;33;20158;-75
2021/05/11 15:00:39;;;;;;;13.25;6.43;;;;;;;;;;4345509;33;20453;-75
2021/05/11 15:03:05;;;;;;;10.00;5.47;;;;;;;;;;4332792;33;20313;-74
2021/05/11 15:05:30;;;;;;;8.98;5.78;;;;;;;;;;4344498;33;20136;-74
2021/05/11 15:07:55;;;;;;;12.27;6.30;;;;;;;;;;4346446;33;20139;-75
2021/05/11 15:10:20;;;;;;;9.57;5.82;;;;;;;;;;4344966;33;20649;-74
2021/05/11 15:12:47;;;;;;;8.35;5.80;;;;;;;;;;4345960;33;20589;-75
2021/05/11 15:15:18;;;;;;;12.45;6.18;;;;;;;;;;4344514;33;20583;-75
2021/05/11 15:20:09;;;;;;;13.95;6.82;;;;;;;;;;4345892;33;20128;-74
2021/05/11 15:22:34;;;;;;;12.13;6.70;;;;;;;;;;4343966;33;20227;-75
2021/05/11 15:24:59;;;;;;;14.57;8.10;;;;;;;;;;4344565;33;20461;-75
2021/05/11 15:27:25;;;;;;;10.82;5.75;;;;;;;;;;4343106;33;20347;-75
2021/05/11 15:29:50;;;;;;;9.88;6.05;;;;;;;;;;4345882;33;20262;-76
2021/05/11 15:32:34;;;;;;;8.35;6.20;;;;;;;;;;4335222;33;20148;-74
2021/05/11 15:34:59;;;;;;;9.80;6.40;;;;;;;;;;4328991;33;20167;-75
2021/05/11 15:37:24;;;;;;;13.15;7.75;;;;;;;;;;4331089;33;20132;-76
2021/05/11 15:39:49;;;;;;;11.25;8.18;;;;;;;;;;4315154;33;20714;-76
2021/05/11 15:42:14;;;;;;;9.80;6.82;;;;;;;;;;4329622;33;20233;-76
2021/05/11 15:44:39;;;;;;;11.38;7.50;;;;;;;;;;4329323;33;20221;-75
2021/05/11 15:47:05;;;;;;;13.30;8.40;;;;;;;;;;4329605;33;20309;-75
2021/05/11 15:49:30;;;;;;;15.20;8.10;;;;;;;;;;4327086;33;20233;-75
2021/05/11 15:51:56;;;;;;;13.52;8.20;;;;;;;;;;4328163;33;20222;-75
2021/05/11 15:54:21;;;;;;;12.07;7.72;;;;;;;;;;4325322;33;20662;-74
2021/05/11 15:56:46;;;;;;;16.17;8.80;;;;;;;;;;4327326;33;20194;-75
2021/05/11 15:59:11;;;;;;;14.25;8.82;;;;;;;;;;4327781;33;20283;-75
2021/05/11 16:01:36;;;;;;;5.10;2.83;;;;;;;;;;4315518;33;20644;-76
2021/05/11 16:04:01;;;;;;;5.53;2.42;;;;;;;;;;4319420;33;20748;-75
2021/05/11 16:06:26;;;;;;;4.45;2.45;;;;;;;;;;4331090;33;20132;-75
2021/05/11 16:08:52;;;;;;;4.62;2.20;;;;;;;;;;4327182;33;20183;-74
2021/05/11 16:11:17;;;;;;;9.55;3.30;;;;;;;;;;4328323;33;20676;-74
2021/05/11 16:13:42;;;;;;;5.82;2.50;;;;;;;;;;4328498;33;20151;-76
2021/05/11 16:16:07;;;;;;;5.47;2.67;;;;;;;;;;4327728;33;20245;-75
2021/05/11 16:18:33;;;;;;;7.47;3.90;;;;;;;;;;4328345;33;20505;-77
2021/05/11 16:20:58;;;;;;;7.55;3.92;;;;;;;;;;4330048;33;20185;-76
2021/05/11 16:23:23;;;;;;;8.40;3.87;;;;;;;;;;4329016;33;20168;-75
2021/05/11 16:25:49;;;;;;;7.28;4.03;;;;;;;;;;4328068;33;20436;-75
2021/05/11 16:28:14;;;;;;;6.70;2.90;;;;;;;;;;4328613;33;20304;-75
2021/05/11 16:30:41;;;;;;;7.60;3.72;;;;;;;;;;4326690;33;20345;-76
2021/05/11 16:33:09;;;;;;;5.07;3.67;;;;;;;;;;4329187;33;20144;-75
2021/05/11 16:35:34;;;;;;;9.25;4.07;;;;;;;;;;4326955;33;20156;-75
2021/05/11 16:37:59;;;;;;;6.97;4.28;;;;;;;;;;4329087;33;20587;-75
2021/05/11 16:40:25;;;;;;;10.02;4.75;;;;;;;;;;4327945;33;20726;-75
2021/05/11 16:42:55;;;;;;;6.55;4.32;;;;;;;;;;4329747;33;20252;-75
2021/05/11 16:45:20;;;;;;;5.75;4.35;;;;;;;;;;4329458;33;20172;-74
2021/05/11 16:47:54;;;;;;;8.85;4.40;;;;;;;;;;4328355;33;20124;-74
2021/05/11 16:50:20;;;;;;;7.55;5.07;;;;;;;;;;4327477;33;20225;-75
2021/05/11 16:52:45;;;;;;;8.18;5.60;;;;;;;;;;4329250;33;20132;-73
2021/05/11 16:55:10;;;;;;;9.88;5.30;;;;;;;;;;4342214;33;20128;-74
2021/05/11 16:57:35;;;;;;;7.25;4.45;;;;;;;;;;4342209;33;20225;-74
2021/05/11 17:00:01;;;;;;;5.20;3.55;;;;;;;;;;4343080;33;20224;-74
2021/05/11 17:02:26;;;;;;;5.97;3.50;;;;;;;;;;4341489;33;20240;-74
2021/05/11 17:04:51;;;;;;;7.15;3.90;;;;;;;;;;4329737;33;20229;-74
2021/05/11 17:07:16;;;;;;;5.10;3.22;;;;;;;;;;4344201;33;20447;-74
2021/05/11 17:09:41;;;;;;;4.85;2.90;;;;;;;;;;4343282;33;20256;-73
2021/05/11 17:12:06;;;;;;;6.95;3.10;;;;;;;;;;4342643;33;20502;-73
2021/05/11 17:14:32;;;;;;;7.93;3.75;;;;;;;;;;4344028;33;20139;-73
2021/05/11 17:16:57;;;;;;;4.53;3.20;;;;;;;;;;4343394;33;20182;-74
2021/05/11 17:19:22;;;;;;;4.90;2.60;;;;;;;;;;4343377;33;20135;-74
2021/05/11 17:21:47;;;;;;;6.40;3.80;;;;;;;;;;4341700;33;20143;-73
2021/05/11 17:24:13;;;;;;;5.15;3.45;;;;;;;;;;4344442;33;20246;-74
2021/05/11 17:26:38;;;;;;;5.82;4.30;;;;;;;;;;4343154;33;20529;-73
2021/05/11 17:29:08;;;;;;;6.22;4.60;;;;;;;;;;4343145;33;20235;-74
2021/05/11 17:31:35;;;;;;;6.65;4.20;;;;;;;;;;4341593;33;20186;-73
2021/05/11 17:34:00;;;;;;;6.22;3.95;;;;;;;;;;4342689;33;20132;-73
2021/05/11 17:36:26;;;;;;;7.05;4.62;;;;;;;;;;4342395;33;20166;-73
2021/05/11 17:38:51;;;;;;;7.28;3.95;;;;;;;;;;4328144;33;20208;-73
2021/05/11 17:41:16;;;;;;;5.20;3.75;;;;;;;;;;4328128;33;20194;-73
2021/05/11 17:43:41;;;;;;;7.47;3.85;;;;;;;;;;4342764;33;20282;-74
2021/05/11 17:46:06;;;;;;;5.60;3.33;;;;;;;;;;4342634;33;20123;-73
2021/05/11 17:48:37;;;;;;;4.93;3.33;;;;;;;;;;4341940;33;20373;-73
2021/05/11 17:51:03;;;;;;;5.18;3.75;;;;;;;;;;4342196;33;20210;-73
2021/05/11 17:53:28;;;;;;;4.87;3.65;;;;;;;;;;4328285;33;20254;-72
2021/05/11 17:55:53;;;;;;;4.57;3.70;;;;;;;;;;4343783;33;20536;-71
2021/05/11 17:58:19;;;;;;;7.53;4.78;;;;;;;;;;4342496;33;20162;-72
2021/05/11 18:00:44;;;;;;;5.72;4.15;;;;;;;;;;4330167;33;20160;-72
2021/05/11 18:03:10;;;;;;;6.30;4.32;;;;;;;;;;4343154;33;20267;-74
2021/05/11 18:05:37;;;;;;;6.20;5.03;;;;;;;;;;4343201;33;20169;-72
2021/05/11 18:08:03;;;;;;;7.78;5.07;;;;;;;;;;4344573;33;20171;-73
2021/05/11 18:10:28;;;;;;;8.32;4.60;;;;;;;;;;4344934;33;20622;-72
2021/05/11 18:12:53;;;;;;;8.35;6.05;;;;;;;;;;4343501;33;20152;-74
2021/05/11 18:15:19;;;;;;;7.53;4.62;;;;;;;;;;4343466;33;20132;-74
2021/05/11 18:17:44;;;;;;;5.47;4.70;;;;;;;;;;4343248;33;20132;-72
2021/05/11 18:20:09;;;;;;;6.72;5.18;;;;;;;;;;4341340;33;20136;-74
2021/05/11 18:22:35;;;;;;;9.43;6.00;;;;;;;;;;4342209;33;20135;-73
2021/05/11 18:25:00;;;;;;;9.00;5.40;;;;;;;;;;4344073;33;20178;-73
2021/05/11 18:27:25;;;;;;;8.85;6.28;;;;;;;;;;4329574;33;20567;-74
2021/05/11 18:29:50;;;;;;;8.18;5.57;;;;;;;;;;4328957;33;20172;-73
2021/05/11 18:32:16;;;;;;;8.57;5.78;;;;;;;;;;4343831;33;20182;-74
2021/05/11 18:34:41;;;;;;;10.15;6.53;;;;;;;;;;4328617;33;20265;-74
2021/05/11 18:39:34;;;;;;;6.68;4.35;;;;;;;;;;4342957;33;20179;-73
2021/05/11 18:42:04;;;;;;;9.25;4.93;;;;;;;;;;4328802;33;20148;-74
2021/05/11 18:44:30;;;;;;;5.45;4.15;;;;;;;;;;4327296;33;20163;-74
2021/05/11 18:46:57;;;;;;;6.28;3.62;;;;;;;;;;4326127;33;20337;-73
2021/05/11 18:49:23;;;;;;;7.60;3.85;;;;;;;;;;4341451;33;20127;-72
2021/05/11 18:51:48;;;;;;;5.00;4.50;;;;;;;;;;4327732;33;20210;-73
2021/05/11 18:54:13;;;;;;;4.68;4.05;;;;;;;;;;4336363;33;20576;-74
2021/05/11 18:56:39;;;;;;;8.88;5.30;;;;;;;;;;4331017;33;20316;-73
2021/05/11 18:59:05;;;;;;;8.27;5.20;;;;;;;;;;4326058;33;20136;-73
2021/05/11 19:01:30;;;;;;;8.48;5.37;;;;;;;;;;4321612;33;20175;-74
2021/05/11 19:03:55;;;;;;;7.90;5.50;;;;;;;;;;4318027;33;20166;-73
2021/05/11 19:06:21;;;;;;;8.52;6.15;;;;;;;;;;4299261;33;20175;-73